createdAt,value
2023-02-26T00:00:49.317Z,46.77
2023-02-26T00:02:51.071Z,47.02
2023-02-26T00:04:52.511Z,47.74
2023-02-26T00:06:57.531Z,47.51
2023-02-26T00:08:59.776Z,47.66
2023-02-26T00:11:02.288Z,47.85
2023-02-26T00:13:03.712Z,48.26
2023-02-26T00:15:05.218Z,48.37
2023-02-26T00:17:06.624Z,48.57
2023-02-26T00:19:07.987Z,48.47
2023-02-26T00:21:09.316Z,48.79
2023-02-26T00:23:10.628Z,49.01
2023-02-26T00:25:12.339Z,49.22
2023-02-26T00:27:13.696Z,49.85
2023-02-26T00:29:15.030Z,50.08
2023-02-26T00:31:16.443Z,50.63
2023-02-26T00:33:17.812Z,51.02
2023-02-26T00:35:19.244Z,51.01
2023-02-26T00:37:20.614Z,51.18
2023-02-26T00:39:21.957Z,51.66
2023-02-26T00:41:23.378Z,51.90
2023-02-26T00:43:24.729Z,52.17
2023-02-26T00:45:26.064Z,52.24
2023-02-26T00:47:27.358Z,52.70
2023-02-26T00:49:28.855Z,52.96
2023-02-26T00:51:30.141Z,52.51
2023-02-26T00:53:31.490Z,52.86
2023-02-26T00:55:32.867Z,53.34
2023-02-26T00:57:34.230Z,53.12
2023-02-26T00:59:35.531Z,53.63
2023-02-26T01:01:36.888Z,53.57
2023-02-26T01:03:38.965Z,53.57
2023-02-26T01:05:40.275Z,53.55
2023-02-26T01:07:41.630Z,53.54
2023-02-26T01:09:42.960Z,53.53
2023-02-26T01:11:44.306Z,53.74
2023-02-26T01:13:45.666Z,53.70
2023-02-26T01:15:47.061Z,53.59
2023-02-26T01:17:48.425Z,53.67
2023-02-26T01:19:49.781Z,53.74
2023-02-26T01:21:51.092Z,53.36
2023-02-26T01:23:52.425Z,53.68
2023-02-26T01:25:55.066Z,53.65
2023-02-26T01:27:59.546Z,53.79
2023-02-26T01:30:00.893Z,53.63
2023-02-26T01:32:02.454Z,53.32
2023-02-26T01:34:03.863Z,53.82
2023-02-26T01:36:05.155Z,53.92
2023-02-26T01:38:06.496Z,53.38
2023-02-26T01:40:07.795Z,53.90
2023-02-26T01:42:09.088Z,53.65
2023-02-26T01:44:10.452Z,53.73
2023-02-26T01:46:11.785Z,53.30
2023-02-26T01:48:13.591Z,53.50
2023-02-26T01:50:14.931Z,53.42
2023-02-26T01:52:16.272Z,53.56
2023-02-26T01:54:18.282Z,53.82
2023-02-26T01:56:21.061Z,53.97
2023-02-26T01:58:22.516Z,53.92
2023-02-26T02:00:23.811Z,54.09
2023-02-26T02:02:25.640Z,53.96
2023-02-26T02:04:27.104Z,53.86
2023-02-26T02:06:28.823Z,54.14
2023-02-26T02:08:30.269Z,54.31
2023-02-26T02:10:31.570Z,54.48
2023-02-26T02:12:32.864Z,54.02
2023-02-26T02:14:34.534Z,54.21
2023-02-26T02:16:35.936Z,54.23
2023-02-26T02:18:37.362Z,54.49
2023-02-26T02:20:38.654Z,54.23
2023-02-26T02:22:39.984Z,54.27
2023-02-26T02:24:41.342Z,54.86
2023-02-26T02:26:42.690Z,54.94
2023-02-26T02:28:44.185Z,54.77
2023-02-26T02:30:45.550Z,54.62
2023-02-26T02:32:46.950Z,54.99
2023-02-26T02:34:48.280Z,54.80
2023-02-26T02:36:49.634Z,55.14
2023-02-26T02:38:51.025Z,54.74
2023-02-26T02:40:52.384Z,54.96
2023-02-26T02:42:53.680Z,55.16
2023-02-26T02:44:55.036Z,54.76
2023-02-26T02:46:56.345Z,54.93
2023-02-26T02:48:57.702Z,54.97
2023-02-26T02:50:59.039Z,55.14
2023-02-26T02:53:00.371Z,54.87
2023-02-26T02:55:02.260Z,55.16
2023-02-26T02:57:03.589Z,55.06
2023-02-26T02:59:07.950Z,55.25
2023-02-26T03:01:09.264Z,54.86
2023-02-26T03:03:10.656Z,55.39
2023-02-26T03:05:12.012Z,55.38
2023-02-26T03:07:13.382Z,55.01
2023-02-26T03:09:14.754Z,55.15
2023-02-26T03:11:16.102Z,55.31
2023-02-26T03:13:17.616Z,55.21
2023-02-26T03:15:18.955Z,55.30
2023-02-26T03:17:20.859Z,54.94
2023-02-26T03:19:22.469Z,54.71
2023-02-26T03:21:23.823Z,55.08
2023-02-26T03:23:25.158Z,54.82
2023-02-26T03:25:26.512Z,54.71
2023-02-26T03:27:27.835Z,54.85
2023-02-26T03:29:29.166Z,55.11
2023-02-26T03:31:30.557Z,54.92
2023-02-26T03:33:31.879Z,55.13
2023-02-26T03:35:33.180Z,55.04
2023-02-26T03:37:34.516Z,55.41
2023-02-26T03:39:35.851Z,55.36
2023-02-26T03:41:37.131Z,54.99
2023-02-26T03:43:38.490Z,55.48
2023-02-26T03:45:39.955Z,55.39
2023-02-26T03:47:41.319Z,55.10
2023-02-26T03:49:42.808Z,55.43
2023-02-26T03:51:44.136Z,55.65
2023-02-26T03:53:45.523Z,55.32
2023-02-26T03:55:46.876Z,55.47
2023-02-26T03:57:48.199Z,55.77
2023-02-26T03:59:49.547Z,55.36
2023-02-26T04:01:50.894Z,55.89
2023-02-26T04:03:52.187Z,55.59
2023-02-26T04:05:53.598Z,55.46
2023-02-26T04:07:55.002Z,55.54
2023-02-26T04:09:56.312Z,55.67
2023-02-26T04:11:57.643Z,55.44
2023-02-26T04:13:58.970Z,55.29
2023-02-26T04:16:00.303Z,55.54
2023-02-26T04:18:01.607Z,55.38
2023-02-26T04:20:07.947Z,55.52
2023-02-26T04:22:09.288Z,55.56
2023-02-26T04:24:10.690Z,55.62
2023-02-26T04:26:13.258Z,55.64
2023-02-26T04:28:14.592Z,55.49
2023-02-26T04:30:15.929Z,55.39
2023-02-26T04:32:17.306Z,55.62
2023-02-26T04:34:18.658Z,55.19
2023-02-26T04:36:19.999Z,55.56
2023-02-26T04:38:21.335Z,55.52
2023-02-26T04:40:24.098Z,55.64
2023-02-26T04:42:25.495Z,56.61
2023-02-26T04:44:26.817Z,55.75
2023-02-26T04:46:28.548Z,55.37
2023-02-26T04:48:30.063Z,55.60
2023-02-26T04:50:31.399Z,55.78
2023-02-26T04:52:32.822Z,55.38
2023-02-26T04:54:34.115Z,55.98
2023-02-26T04:56:35.583Z,55.72
2023-02-26T04:58:36.905Z,55.84
2023-02-26T05:00:38.199Z,55.93
2023-02-26T05:02:39.526Z,56.13
2023-02-26T05:04:40.893Z,56.25
2023-02-26T05:06:42.216Z,56.02
2023-02-26T05:08:43.608Z,56.28
2023-02-26T05:10:44.906Z,56.08
2023-02-26T05:12:46.252Z,55.81
2023-02-26T05:14:47.596Z,55.59
2023-02-26T05:16:49.009Z,55.67
2023-02-26T05:18:50.336Z,56.42
2023-02-26T05:20:51.679Z,55.76
2023-02-26T05:22:53.529Z,55.87
2023-02-26T05:24:54.888Z,56.38
2023-02-26T05:26:56.213Z,56.12
2023-02-26T05:28:57.542Z,55.85
2023-02-26T05:30:58.976Z,56.31
2023-02-26T05:33:00.348Z,56.36
2023-02-26T05:35:02.199Z,56.06
2023-02-26T05:37:03.755Z,56.24
2023-02-26T05:39:05.105Z,56.54
2023-02-26T05:41:06.457Z,56.28
2023-02-26T05:43:07.792Z,56.60
2023-02-26T05:45:09.168Z,56.39
2023-02-26T05:47:10.467Z,56.42
2023-02-26T05:49:11.912Z,56.16
2023-02-26T05:51:13.308Z,56.33
2023-02-26T05:53:14.604Z,56.34
2023-02-26T05:55:16.841Z,55.91
2023-02-26T05:57:18.170Z,56.17
2023-02-26T05:59:19.510Z,56.08
2023-02-26T06:01:20.864Z,56.07
2023-02-26T06:03:22.213Z,56.08
2023-02-26T06:05:23.547Z,44.35
2023-02-26T06:07:24.964Z,45.91
2023-02-26T06:09:26.312Z,47.47
2023-02-26T06:11:27.635Z,48.04
2023-02-26T06:13:28.968Z,48.77
2023-02-26T06:15:30.274Z,49.00
2023-02-26T06:17:31.644Z,50.30
2023-02-26T06:19:32.974Z,50.46
2023-02-26T06:21:34.312Z,51.30
2023-02-26T06:23:35.648Z,51.41
2023-02-26T06:25:36.945Z,51.55
2023-02-26T06:27:38.283Z,51.59
2023-02-26T06:29:39.796Z,51.39
2023-02-26T06:31:41.325Z,52.03
2023-02-26T06:33:42.737Z,51.71
2023-02-26T06:35:44.030Z,52.04
2023-02-26T06:37:45.333Z,52.27
2023-02-26T06:39:46.683Z,52.20
2023-02-26T06:41:48.025Z,52.41
2023-02-26T06:43:49.309Z,52.34
2023-02-26T06:45:51.072Z,52.98
2023-02-26T06:47:52.446Z,52.91
2023-02-26T06:49:53.724Z,53.65
2023-02-26T06:51:55.044Z,53.62
2023-02-26T06:53:56.400Z,53.96
2023-02-26T06:55:57.692Z,54.16
2023-02-26T06:57:59.072Z,54.58
2023-02-26T07:00:01.149Z,54.27
2023-02-26T07:02:02.565Z,54.71
2023-02-26T07:04:03.929Z,54.91
2023-02-26T07:06:25.710Z,55.08
2023-02-26T07:08:26.535Z,55.02
2023-02-26T07:10:27.963Z,55.39
2023-02-26T07:12:29.269Z,55.67
2023-02-26T07:14:30.610Z,55.16
2023-02-26T07:16:31.981Z,55.83
2023-02-26T07:18:33.321Z,55.15
2023-02-26T07:20:34.655Z,55.71
2023-02-26T07:22:35.948Z,55.90
2023-02-26T07:24:37.500Z,55.85
2023-02-26T07:26:39.265Z,55.44
2023-02-26T07:28:40.618Z,55.48
2023-02-26T07:30:42.726Z,56.07
2023-02-26T07:32:44.104Z,55.66
2023-02-26T07:34:45.414Z,56.16
2023-02-26T07:36:46.768Z,56.16
2023-02-26T07:38:48.056Z,55.81
2023-02-26T07:40:49.607Z,55.64
2023-02-26T07:42:50.992Z,55.77
2023-02-26T07:44:52.424Z,55.74
2023-02-26T07:46:53.768Z,55.60
2023-02-26T07:48:55.071Z,55.48
2023-02-26T07:50:56.423Z,54.67
2023-02-26T07:52:57.931Z,55.40
2023-02-26T07:54:59.236Z,55.32
2023-02-26T07:57:00.608Z,54.55
2023-02-26T07:59:02.210Z,54.25
2023-02-26T08:01:03.711Z,54.54
2023-02-26T08:03:05.107Z,54.40
2023-02-26T08:05:06.453Z,54.09
2023-02-26T08:07:13.561Z,53.70
2023-02-26T08:09:14.900Z,53.66
2023-02-26T08:11:16.220Z,54.35
2023-02-26T08:13:17.504Z,54.22
2023-02-26T08:15:18.843Z,54.19
2023-02-26T08:17:20.168Z,54.24
2023-02-26T08:19:21.514Z,54.13
2023-02-26T08:21:22.938Z,54.03
2023-02-26T08:23:24.329Z,54.07
2023-02-26T08:25:25.645Z,53.99
2023-02-26T08:27:27.089Z,54.02
2023-02-26T08:29:28.876Z,53.88
2023-02-26T08:31:31.711Z,53.82
2023-02-26T08:33:33.167Z,53.75
2023-02-26T08:35:34.525Z,53.43
2023-02-26T08:37:35.859Z,53.50
2023-02-26T08:39:38.847Z,53.84
2023-02-26T08:41:40.201Z,53.52
2023-02-26T08:43:41.521Z,53.50
2023-02-26T08:45:42.841Z,53.42
2023-02-26T08:47:56.116Z,53.23
2023-02-26T08:49:58.997Z,53.48
2023-02-26T08:52:00.454Z,53.21
2023-02-26T08:54:01.796Z,53.05
2023-02-26T08:56:05.908Z,53.48
2023-02-26T08:58:07.953Z,52.91
2023-02-26T09:00:12.135Z,53.33
2023-02-26T09:02:13.489Z,42.76
2023-02-26T09:04:14.817Z,42.20
2023-02-26T09:06:16.175Z,41.39
2023-02-26T09:08:17.509Z,40.60
2023-02-26T09:10:18.805Z,43.78
2023-02-26T09:12:20.129Z,43.05
2023-02-26T09:14:21.435Z,40.52
2023-02-26T09:16:25.982Z,41.23
2023-02-26T09:18:27.568Z,44.26
2023-02-26T09:20:28.865Z,43.06
2023-02-26T09:22:30.187Z,43.51
2023-02-26T09:24:31.564Z,44.57
2023-02-26T09:26:33.501Z,45.76
2023-02-26T09:28:34.825Z,44.54
2023-02-26T09:30:36.155Z,44.80
2023-02-26T09:32:38.083Z,46.35
2023-02-26T09:34:42.369Z,44.77
2023-02-26T09:36:44.641Z,45.69
2023-02-26T09:38:46.116Z,45.74
2023-02-26T09:40:47.519Z,46.41
2023-02-26T09:42:49.359Z,46.60
2023-02-26T09:44:51.456Z,46.84
2023-02-26T09:46:52.844Z,46.90
2023-02-26T09:48:54.187Z,46.61
2023-02-26T09:50:55.486Z,46.80
2023-02-26T09:52:56.772Z,47.03
2023-02-26T09:54:58.105Z,47.01
2023-02-26T09:56:59.468Z,47.57
2023-02-26T09:59:00.807Z,47.31
2023-02-26T10:01:02.120Z,47.88
2023-02-26T10:03:03.427Z,47.51
2023-02-26T10:05:04.986Z,47.87
2023-02-26T10:07:06.575Z,48.19
2023-02-26T10:09:08.090Z,47.88
2023-02-26T10:11:09.404Z,48.66
2023-02-26T10:13:10.723Z,48.15
2023-02-26T10:15:13.359Z,48.60
2023-02-26T10:17:14.794Z,48.77
2023-02-26T10:19:16.224Z,48.92
2023-02-26T10:21:17.754Z,49.00
2023-02-26T10:23:19.143Z,49.03
2023-02-26T10:25:20.480Z,49.12
2023-02-26T10:27:21.838Z,49.13
2023-02-26T10:29:23.512Z,48.72
2023-02-26T10:31:25.103Z,48.99
2023-02-26T10:33:26.660Z,49.42
2023-02-26T10:35:28.100Z,48.87
2023-02-26T10:37:29.428Z,49.31
2023-02-26T10:39:30.931Z,49.11
2023-02-26T10:41:32.336Z,49.18
2023-02-26T10:43:33.663Z,49.78
2023-02-26T10:45:38.079Z,49.52
2023-02-26T10:47:39.468Z,49.74
2023-02-26T10:49:41.026Z,49.68
2023-02-26T10:51:42.316Z,49.82
2023-02-26T10:53:43.616Z,49.83
2023-02-26T10:55:44.973Z,49.68
2023-02-26T10:57:46.268Z,49.54
2023-02-26T10:59:47.576Z,49.78
2023-02-26T11:01:48.911Z,49.40
2023-02-26T11:03:50.256Z,49.01
2023-02-26T11:05:51.820Z,49.32
2023-02-26T11:07:56.249Z,49.16
2023-02-26T11:09:57.548Z,48.92
2023-02-26T11:11:59.038Z,48.73
2023-02-26T11:14:00.332Z,48.75
2023-02-26T11:16:04.821Z,48.62
2023-02-26T11:18:06.184Z,48.65
2023-02-26T11:20:09.043Z,48.26
2023-02-26T11:22:13.211Z,48.58
2023-02-26T11:24:14.588Z,48.27
2023-02-26T11:26:16.640Z,48.58
2023-02-26T11:28:17.942Z,48.25
2023-02-26T11:30:19.336Z,48.64
2023-02-26T11:32:23.362Z,48.45
2023-02-26T11:34:24.840Z,48.27
2023-02-26T11:36:26.433Z,48.70
2023-02-26T11:38:28.046Z,48.83
2023-02-26T11:40:32.284Z,48.79
2023-02-26T11:42:34.076Z,49.11
2023-02-26T11:44:35.498Z,48.82
2023-02-26T11:46:37.548Z,48.82
2023-02-26T11:48:38.879Z,49.24
2023-02-26T11:50:42.194Z,49.13
2023-02-26T11:52:45.202Z,49.09
2023-02-26T11:54:49.607Z,49.05
2023-02-26T11:56:50.935Z,49.40
2023-02-26T11:58:53.798Z,49.64
2023-02-26T12:00:56.494Z,49.25
2023-02-26T12:02:57.855Z,49.49
2023-02-26T12:05:00.680Z,49.39
2023-02-26T12:07:01.991Z,49.28
2023-02-26T12:09:04.100Z,49.83
2023-02-26T12:11:06.128Z,49.53
2023-02-26T12:13:10.315Z,49.63
2023-02-26T12:15:14.736Z,49.60
2023-02-26T12:17:16.088Z,49.48
2023-02-26T12:19:18.130Z,50.05
2023-02-26T12:21:19.424Z,49.44
2023-02-26T12:23:20.735Z,49.58
2023-02-26T12:25:22.549Z,49.61
2023-02-26T12:27:23.847Z,49.56
2023-02-26T12:29:25.194Z,48.99
2023-02-26T12:31:29.928Z,48.86
2023-02-26T12:33:31.541Z,48.97
2023-02-26T12:35:32.904Z,49.06
2023-02-26T12:37:34.320Z,48.56
2023-02-26T12:39:35.660Z,48.73
2023-02-26T12:41:40.448Z,48.45
2023-02-26T12:43:41.809Z,48.34
2023-02-26T12:45:43.096Z,48.35
2023-02-26T12:47:44.416Z,48.36
2023-02-26T12:49:48.463Z,48.33
2023-02-26T12:51:51.458Z,48.02
2023-02-26T12:53:52.808Z,48.02
2023-02-26T12:55:54.164Z,48.52
2023-02-26T12:57:55.478Z,48.48
2023-02-26T12:59:56.910Z,48.25
2023-02-26T13:02:01.735Z,48.33
2023-02-26T13:04:03.278Z,48.57
2023-02-26T13:06:07.256Z,48.83
2023-02-26T13:08:09.307Z,48.58
2023-02-26T13:10:10.658Z,48.28
2023-02-26T13:12:12.418Z,48.77
2023-02-26T13:14:15.169Z,49.21
2023-02-26T13:16:16.508Z,49.36
2023-02-26T13:18:17.861Z,49.52
2023-02-26T13:20:25.079Z,49.50
2023-02-26T13:22:29.454Z,49.42
2023-02-26T13:24:30.752Z,49.54
2023-02-26T13:26:35.024Z,49.72
2023-02-26T13:28:39.557Z,49.87
2023-02-26T13:30:40.943Z,49.61
2023-02-26T13:32:42.453Z,49.61
2023-02-26T13:34:46.574Z,49.70
2023-02-26T13:36:47.972Z,49.53
2023-02-26T13:38:49.276Z,49.60
2023-02-26T13:40:50.874Z,49.27
2023-02-26T13:42:52.243Z,49.34
2023-02-26T13:44:53.580Z,49.16
2023-02-26T13:46:57.990Z,48.92
2023-02-26T13:49:00.621Z,48.07
2023-02-26T13:51:01.956Z,47.90
2023-02-26T13:53:03.413Z,47.38
2023-02-26T13:55:04.709Z,47.10
2023-02-26T13:57:06.541Z,46.66
2023-02-26T13:59:07.840Z,45.98
2023-02-26T14:01:09.299Z,46.07
2023-02-26T14:03:10.676Z,46.04
2023-02-26T14:05:12.008Z,45.79
2023-02-26T14:07:13.310Z,46.25
2023-02-26T14:09:14.640Z,46.36
2023-02-26T14:11:15.947Z,45.96
2023-02-26T14:13:17.281Z,46.25
2023-02-26T14:15:18.624Z,46.50
2023-02-26T14:17:20.571Z,46.75
2023-02-26T14:19:21.877Z,47.07
2023-02-26T14:21:23.241Z,47.30
2023-02-26T14:23:24.572Z,47.08
2023-02-26T14:25:25.945Z,47.43
2023-02-26T14:27:27.240Z,47.76
2023-02-26T14:29:28.549Z,47.74
2023-02-26T14:31:30.406Z,47.76
2023-02-26T14:33:32.084Z,47.50
2023-02-26T14:35:33.532Z,48.01
2023-02-26T14:37:37.295Z,48.45
2023-02-26T14:39:38.721Z,48.50
2023-02-26T14:41:43.031Z,48.86
2023-02-26T14:43:44.376Z,48.36
2023-02-26T14:45:46.180Z,48.69
2023-02-26T14:47:50.692Z,48.85
2023-02-26T14:49:59.395Z,49.13
2023-02-26T14:52:00.705Z,49.41
2023-02-26T14:54:02.067Z,47.34
2023-02-26T14:56:04.315Z,47.67
2023-02-26T14:58:06.193Z,47.11
2023-02-26T15:00:12.290Z,47.28
2023-02-26T15:02:16.665Z,47.91
2023-02-26T15:04:21.188Z,46.93
2023-02-26T15:06:22.586Z,47.24
2023-02-26T15:08:26.563Z,46.96
2023-02-26T15:10:27.898Z,47.97
2023-02-26T15:12:29.259Z,47.43
2023-02-26T15:14:30.611Z,47.41
2023-02-26T15:16:32.019Z,47.51
2023-02-26T15:18:33.321Z,47.71
2023-02-26T15:20:34.659Z,47.95
2023-02-26T15:22:42.180Z,48.38
2023-02-26T15:24:43.473Z,48.67
2023-02-26T15:26:44.768Z,49.04
2023-02-26T15:28:46.181Z,49.84
2023-02-26T15:30:47.560Z,48.84
2023-02-26T15:32:49.401Z,48.97
2023-02-26T15:34:50.728Z,49.34
2023-02-26T15:36:53.414Z,48.57
2023-02-26T15:38:57.928Z,49.38
2023-02-26T15:40:59.244Z,49.87
2023-02-26T15:43:00.776Z,49.17
2023-02-26T15:45:02.301Z,49.01
2023-02-26T15:47:03.647Z,49.08
2023-02-26T15:49:05.006Z,47.96
2023-02-26T15:51:06.431Z,47.87
2023-02-26T15:53:07.729Z,48.34
2023-02-26T15:55:09.351Z,48.39
2023-02-26T15:57:10.647Z,48.67
2023-02-26T15:59:15.026Z,49.03
2023-02-26T16:01:17.138Z,49.65
2023-02-26T16:03:18.542Z,50.52
2023-02-26T16:05:19.873Z,49.52
2023-02-26T16:07:21.765Z,49.17
2023-02-26T16:09:23.059Z,48.40
2023-02-26T16:11:27.479Z,49.42
2023-02-26T16:13:28.843Z,49.42
2023-02-26T16:15:30.179Z,48.80
2023-02-26T16:17:31.495Z,49.29
2023-02-26T16:19:32.891Z,49.11
2023-02-26T16:21:34.373Z,49.76
2023-02-26T16:23:35.721Z,50.51
2023-02-26T16:25:43.222Z,50.46
2023-02-26T16:27:47.581Z,51.63
2023-02-26T16:29:48.921Z,50.09
2023-02-26T16:31:50.419Z,50.31
2023-02-26T16:33:51.775Z,49.67
2023-02-26T16:35:53.060Z,49.98
2023-02-26T16:37:55.184Z,49.60
2023-02-26T16:40:02.668Z,50.75
2023-02-26T16:42:09.864Z,49.50
2023-02-26T16:44:11.217Z,49.72
2023-02-26T16:46:12.767Z,50.03
2023-02-26T16:48:14.175Z,50.10
2023-02-26T16:50:15.469Z,50.17
2023-02-26T16:52:17.089Z,50.44
2023-02-26T16:54:18.505Z,50.59
2023-02-26T16:56:19.853Z,49.37
2023-02-26T16:58:22.907Z,50.07
2023-02-26T17:00:33.461Z,49.61
2023-02-26T17:02:34.888Z,50.21
2023-02-26T17:04:36.206Z,50.71
2023-02-26T17:06:38.933Z,50.70
2023-02-26T17:08:40.296Z,51.01
2023-02-26T17:10:41.727Z,50.89
2023-02-26T17:12:43.030Z,50.62
2023-02-26T17:14:45.453Z,50.40
2023-02-26T17:16:47.190Z,51.15
2023-02-26T17:18:48.538Z,51.30
2023-02-26T17:20:50.082Z,50.56
2023-02-26T17:22:51.685Z,50.84
2023-02-26T17:24:56.015Z,50.73
2023-02-26T17:27:00.164Z,50.52
2023-02-26T17:29:03.513Z,50.49
2023-02-26T17:31:04.913Z,50.73
2023-02-26T17:33:07.942Z,50.59
2023-02-26T17:35:12.144Z,50.64
2023-02-26T17:37:16.420Z,50.46
2023-02-26T17:41:19.198Z,50.50
2023-02-26T17:43:23.517Z,50.38
2023-02-26T17:45:25.244Z,50.31
2023-02-26T17:47:26.618Z,50.40
2023-02-26T17:49:28.051Z,50.28
2023-02-26T17:51:29.764Z,50.06
2023-02-26T17:53:41.457Z,50.23
2023-02-26T17:55:42.752Z,50.32
2023-02-26T17:57:44.070Z,50.24
2023-02-26T17:59:49.054Z,50.31
2023-02-26T18:01:50.403Z,50.47
2023-02-26T18:03:57.782Z,50.31
2023-02-26T18:05:59.218Z,50.44
2023-02-26T18:08:00.635Z,50.29
2023-02-26T18:10:02.286Z,50.01
2023-02-26T18:12:03.731Z,49.99
2023-02-26T18:14:08.128Z,50.29
2023-02-26T18:16:09.424Z,49.81
2023-02-26T18:18:10.757Z,49.86
2023-02-26T18:20:13.252Z,50.09
2023-02-26T18:22:14.654Z,49.54
2023-02-26T18:24:15.985Z,49.79
2023-02-26T18:26:17.591Z,50.12
2023-02-26T18:28:18.904Z,50.17
2023-02-26T18:30:20.218Z,50.28
2023-02-26T18:32:21.703Z,50.22
2023-02-26T18:34:23.094Z,49.71
2023-02-26T18:36:24.901Z,49.64
2023-02-26T18:38:26.240Z,50.05
2023-02-26T18:40:28.101Z,51.01
2023-02-26T18:42:29.487Z,49.66
2023-02-26T18:44:32.709Z,49.64
2023-02-26T18:46:38.515Z,50.44
2023-02-26T18:48:40.224Z,49.48
2023-02-26T18:50:44.472Z,49.90
2023-02-26T18:52:52.001Z,50.07
2023-02-26T18:54:53.969Z,49.15
2023-02-26T18:56:55.536Z,49.93
2023-02-26T18:58:56.844Z,50.41
2023-02-26T19:00:59.353Z,49.51
2023-02-26T19:03:00.697Z,50.38
2023-02-26T19:05:05.103Z,49.87
2023-02-26T19:07:06.583Z,50.59
2023-02-26T19:09:11.109Z,51.03
2023-02-26T19:11:12.411Z,50.35
2023-02-26T19:13:16.535Z,49.70
2023-02-26T19:15:20.849Z,49.50
2023-02-26T19:17:28.056Z,49.63
2023-02-26T19:19:29.999Z,51.40
2023-02-26T19:21:36.967Z,50.55
2023-02-26T19:23:38.308Z,50.15
2023-02-26T19:25:42.058Z,50.21
2023-02-26T19:27:44.019Z,50.36
2023-02-26T19:29:48.367Z,50.96
2023-02-26T19:31:49.787Z,50.79
2023-02-26T19:33:51.221Z,51.11
2023-02-26T19:35:52.729Z,50.17
2023-02-26T19:37:55.854Z,50.63
2023-02-26T19:39:57.313Z,50.28
2023-02-26T19:42:02.027Z,50.36
2023-02-26T19:44:03.364Z,50.26
2023-02-26T19:46:04.744Z,50.54
2023-02-26T19:48:06.576Z,49.55
2023-02-26T19:50:08.286Z,50.07
2023-02-26T19:52:09.735Z,50.94
2023-02-26T19:54:12.752Z,50.98
2023-02-26T19:56:16.701Z,50.58
2023-02-26T19:58:19.614Z,50.10
2023-02-26T20:00:20.903Z,50.26
2023-02-26T20:02:22.796Z,49.34
2023-02-26T20:04:24.248Z,49.49
2023-02-26T20:06:25.789Z,49.61
2023-02-26T20:08:29.390Z,49.96
2023-02-26T20:10:31.664Z,50.28
2023-02-26T20:12:33.011Z,50.20
2023-02-26T20:14:34.337Z,49.96
2023-02-26T20:16:35.671Z,50.52
2023-02-26T20:18:37.074Z,50.39
2023-02-26T20:20:38.443Z,50.19
2023-02-26T20:22:39.894Z,50.20
2023-02-26T20:24:41.331Z,49.90
2023-02-26T20:26:42.668Z,50.48
2023-02-26T20:28:44.187Z,50.19
2023-02-26T20:30:45.877Z,50.47
2023-02-26T20:32:47.449Z,50.75
2023-02-26T20:34:48.920Z,50.60
2023-02-26T20:36:55.868Z,50.97
2023-02-26T20:38:57.272Z,50.71
2023-02-26T20:41:01.235Z,50.47
2023-02-26T20:43:05.215Z,50.72
2023-02-26T20:45:07.869Z,49.49
2023-02-26T20:47:09.284Z,50.09
2023-02-26T20:49:11.707Z,49.96
2023-02-26T20:51:15.793Z,49.93
2023-02-26T20:53:17.128Z,49.79
2023-02-26T20:55:20.446Z,50.12
2023-02-26T20:57:22.045Z,50.03
2023-02-26T20:59:26.044Z,49.97
2023-02-26T21:01:35.259Z,50.03
2023-02-26T21:03:36.631Z,49.74
2023-02-26T21:05:38.635Z,50.07
2023-02-26T21:07:39.996Z,49.83
2023-02-26T21:09:41.354Z,49.81
2023-02-26T21:11:42.680Z,49.85
2023-02-26T21:13:47.306Z,49.52
2023-02-26T21:15:48.637Z,50.22
2023-02-26T21:17:49.948Z,50.39
2023-02-26T21:19:51.251Z,49.90
2023-02-26T21:21:52.587Z,50.48
2023-02-26T21:23:54.017Z,50.49
2023-02-26T21:25:58.031Z,50.52
2023-02-26T21:27:59.477Z,50.52
2023-02-26T21:30:00.861Z,50.62
2023-02-26T21:32:05.243Z,50.42
2023-02-26T21:34:32.125Z,50.62
2023-02-26T21:36:28.165Z,50.57
2023-02-26T21:38:29.488Z,50.93
2023-02-26T21:40:32.047Z,50.75
2023-02-26T21:44:34.777Z,50.72
2023-02-26T21:46:36.205Z,50.88
2023-02-26T21:48:37.512Z,50.29
2023-02-26T21:50:38.859Z,50.56
2023-02-26T21:52:40.172Z,50.86
2023-02-26T21:54:44.244Z,50.40
2023-02-26T21:56:45.584Z,51.16
2023-02-26T21:58:47.139Z,50.67
2023-02-26T22:00:48.509Z,50.77
2023-02-26T22:02:50.102Z,50.41
2023-02-26T22:04:51.400Z,50.34
2023-02-26T22:06:52.740Z,50.34
2023-02-26T22:08:54.047Z,50.33
2023-02-26T22:10:55.368Z,50.16
2023-02-26T22:12:56.709Z,50.21
2023-02-26T22:14:58.014Z,50.81
2023-02-26T22:16:59.355Z,50.85
2023-02-26T22:19:00.718Z,50.97
2023-02-26T22:21:02.031Z,50.75
2023-02-26T22:23:04.673Z,50.89
2023-02-26T22:25:06.038Z,50.82
2023-02-26T22:27:07.344Z,50.57
2023-02-26T22:29:08.932Z,50.58
2023-02-26T22:31:10.410Z,50.44
2023-02-26T22:33:11.907Z,50.74
2023-02-26T22:35:13.952Z,50.58
2023-02-26T22:37:15.337Z,50.78
2023-02-26T22:39:16.696Z,50.73
2023-02-26T22:41:18.053Z,50.87
2023-02-26T22:43:19.411Z,50.52
2023-02-26T22:45:20.780Z,50.69
2023-02-26T22:47:22.077Z,50.64
2023-02-26T22:49:23.414Z,50.41
2023-02-26T22:51:25.238Z,50.89
2023-02-26T22:53:26.840Z,50.31
2023-02-26T22:55:28.160Z,50.46
2023-02-26T22:57:29.492Z,50.99
2023-02-26T22:59:30.823Z,50.40
2023-02-26T23:01:32.173Z,49.56
2023-02-26T23:03:33.524Z,48.39
2023-02-26T23:05:38.849Z,47.94
2023-02-26T23:07:40.231Z,50.24
2023-02-26T23:09:41.518Z,49.36
2023-02-26T23:11:42.855Z,48.93
2023-02-26T23:13:44.158Z,48.98
2023-02-26T23:15:46.567Z,49.50
2023-02-26T23:17:47.920Z,49.56
2023-02-26T23:19:49.344Z,49.62
2023-02-26T23:21:50.736Z,49.75
2023-02-26T23:23:52.084Z,49.77
2023-02-26T23:25:53.444Z,49.43
2023-02-26T23:27:54.740Z,49.68
2023-02-26T23:29:56.035Z,50.14
2023-02-26T23:31:57.561Z,49.96
2023-02-26T23:33:58.933Z,50.49
2023-02-26T23:36:00.634Z,50.33
2023-02-26T23:38:02.333Z,50.08
2023-02-26T23:40:04.154Z,50.36
2023-02-26T23:42:05.449Z,50.54
2023-02-26T23:44:06.802Z,50.49
2023-02-26T23:46:08.238Z,50.33
2023-02-26T23:48:09.584Z,50.22
2023-02-26T23:50:10.890Z,50.39
2023-02-26T23:52:12.239Z,50.40
2023-02-26T23:54:13.533Z,50.54
2023-02-26T23:56:14.831Z,51.03
2023-02-26T23:58:16.159Z,51.32
